sensor_id;sensor_type;location;lat;lon;timestamp;pressure;altitude;pressure_sealevel;temperature;humidity
37860;BME280;23698;52.014;5.190;2022-08-04T00:00:27;101245.00;;;21.21;100.00
37860;BME280;23698;52.014;5.190;2022-08-04T00:03:42;101245.69;;;21.28;100.00
37860;BME280;23698;52.014;5.190;2022-08-04T00:06:55;101236.16;;;21.36;100.00
37860;BME280;23698;52.014;5.190;2022-08-04T00:10:05;101233.88;;;21.33;100.00
37860;BME280;23698;52.014;5.190;2022-08-04T00:13:10;101233.56;;;21.29;100.00
37860;BME280;23698;52.014;5.190;2022-08-04T00:16:16;101230.47;;;21.26;100.00
37860;BME280;23698;52.014;5.190;2022-08-04T00:19:28;101226.25;;;21.18;100.00
37860;BME280;23698;52.014;5.190;2022-08-04T00:22:34;101231.75;;;21.18;100.00
37860;BME280;23698;52.014;5.190;2022-08-04T00:25:39;101234.13;;;21.31;100.00
37860;BME280;23698;52.014;5.190;2022-08-04T00:28:46;101225.75;;;21.43;100.00
37860;BME280;23698;52.014;5.190;2022-08-04T00:31:53;101221.41;;;21.47;100.00
37860;BME280;23698;52.014;5.190;2022-08-04T00:35:03;101219.84;;;21.52;100.00
37860;BME280;23698;52.014;5.190;2022-08-04T00:38:09;101224.47;;;21.46;100.00
37860;BME280;23698;52.014;5.190;2022-08-04T00:41:21;101217.16;;;21.40;100.00
37860;BME280;23698;52.014;5.190;2022-08-04T00:44:38;101213.44;;;21.29;100.00
37860;BME280;23698;52.014;5.190;2022-08-04T00:47:56;101217.44;;;21.21;100.00
37860;BME280;23698;52.014;5.190;2022-08-04T00:51:14;101222.91;;;21.16;100.00
37860;BME280;23698;52.014;5.190;2022-08-04T00:54:33;101215.81;;;21.03;100.00
37860;BME280;23698;52.014;5.190;2022-08-04T00:57:54;101211.22;;;21.09;100.00
37860;BME280;23698;52.014;5.190;2022-08-04T01:01:05;101208.66;;;21.24;100.00
37860;BME280;23698;52.014;5.190;2022-08-04T01:04:15;101207.59;;;21.25;100.00
37860;BME280;23698;52.014;5.190;2022-08-04T01:07:40;101208.50;;;21.31;100.00
37860;BME280;23698;52.014;5.190;2022-08-04T01:10:57;101203.81;;;21.31;100.00
37860;BME280;23698;52.014;5.190;2022-08-04T01:14:23;101208.50;;;21.31;100.00
37860;BME280;23698;52.014;5.190;2022-08-04T01:17:44;101198.22;;;21.26;100.00
37860;BME280;23698;52.014;5.190;2022-08-04T01:21:05;101191.38;;;21.29;100.00
37860;BME280;23698;52.014;5.190;2022-08-04T01:24:29;101194.31;;;21.22;100.00
37860;BME280;23698;52.014;5.190;2022-08-04T01:27:52;101187.72;;;21.23;100.00
37860;BME280;23698;52.014;5.190;2022-08-04T01:31:19;101196.69;;;21.13;100.00
37860;BME280;23698;52.014;5.190;2022-08-04T01:34:29;101196.59;;;21.08;100.00
37860;BME280;23698;52.014;5.190;2022-08-04T01:37:47;101195.38;;;20.99;100.00
37860;BME280;23698;52.014;5.190;2022-08-04T01:41:02;101194.22;;;20.95;100.00
37860;BME280;23698;52.014;5.190;2022-08-04T01:44:08;101198.63;;;20.96;100.00
37860;BME280;23698;52.014;5.190;2022-08-04T01:47:19;101193.44;;;21.00;100.00
37860;BME280;23698;52.014;5.190;2022-08-04T01:50:26;101192.28;;;20.96;100.00
37860;BME280;23698;52.014;5.190;2022-08-04T01:53:39;101189.22;;;20.92;100.00
37860;BME280;23698;52.014;5.190;2022-08-04T01:56:46;101192.78;;;20.92;100.00
37860;BME280;23698;52.014;5.190;2022-08-04T01:59:53;101189.13;;;20.87;100.00
37860;BME280;23698;52.014;5.190;2022-08-04T02:03:04;101182.72;;;20.81;100.00
37860;BME280;23698;52.014;5.190;2022-08-04T02:06:17;101179.03;;;20.75;100.00
37860;BME280;23698;52.014;5.190;2022-08-04T02:09:37;101178.28;;;20.80;100.00
37860;BME280;23698;52.014;5.190;2022-08-04T02:13:09;101184.78;;;20.74;100.00
37860;BME280;23698;52.014;5.190;2022-08-04T02:16:27;101182.56;;;20.71;100.00
37860;BME280;23698;52.014;5.190;2022-08-04T02:19:48;101175.69;;;20.73;100.00
37860;BME280;23698;52.014;5.190;2022-08-04T02:22:58;101187.44;;;20.86;100.00
37860;BME280;23698;52.014;5.190;2022-08-04T02:26:05;101177.59;;;20.90;100.00
37860;BME280;23698;52.014;5.190;2022-08-04T02:29:33;101177.84;;;20.88;100.00
37860;BME280;23698;52.014;5.190;2022-08-04T02:32:41;101172.44;;;20.77;100.00
37860;BME280;23698;52.014;5.190;2022-08-04T02:35:53;101169.19;;;20.63;100.00
37860;BME280;23698;52.014;5.190;2022-08-04T02:39:06;101164.91;;;20.55;100.00
37860;BME280;23698;52.014;5.190;2022-08-04T02:42:13;101159.09;;;20.51;100.00
37860;BME280;23698;52.014;5.190;2022-08-04T02:45:21;101161.47;;;20.48;100.00
37860;BME280;23698;52.014;5.190;2022-08-04T02:48:27;101159.25;;;20.45;100.00
37860;BME280;23698;52.014;5.190;2022-08-04T02:51:39;101156.16;;;20.41;100.00
37860;BME280;23698;52.014;5.190;2022-08-04T02:54:46;101152.47;;;20.35;100.00
37860;BME280;23698;52.014;5.190;2022-08-04T02:57:53;101144.81;;;20.37;100.00
37860;BME280;23698;52.014;5.190;2022-08-04T03:01:00;101151.31;;;20.31;100.00
37860;BME280;23698;52.014;5.190;2022-08-04T03:04:24;101152.66;;;20.29;100.00
37860;BME280;23698;52.014;5.190;2022-08-04T03:07:57;101157.63;;;20.32;100.00
37860;BME280;23698;52.014;5.190;2022-08-04T03:11:30;101151.47;;;20.25;100.00
37860;BME280;23698;52.014;5.190;2022-08-04T03:15:07;101154.44;;;20.23;100.00
37860;BME280;23698;52.014;5.190;2022-08-04T03:18:51;101146.44;;;20.22;100.00
37860;BME280;23698;52.014;5.190;2022-08-04T03:26:10;101149.53;;;20.08;100.00
37860;BME280;23698;52.014;5.190;2022-08-04T03:29:47;101147.03;;;20.07;100.00
37860;BME280;23698;52.014;5.190;2022-08-04T03:33:34;101145.00;;;20.02;100.00
37860;BME280;23698;52.014;5.190;2022-08-04T03:37:02;101141.91;;;19.98;100.00
37860;BME280;23698;52.014;5.190;2022-08-04T03:40:34;101147.41;;;19.98;100.00
37860;BME280;23698;52.014;5.190;2022-08-04T03:43:57;101147.31;;;19.93;100.00
37860;BME280;23698;52.014;5.190;2022-08-04T03:47:21;101143.88;;;19.86;100.00
37860;BME280;23698;52.014;5.190;2022-08-04T03:51:08;101140.22;;;19.80;100.00
37860;BME280;23698;52.014;5.190;2022-08-04T03:54:55;101138.72;;;19.90;100.00
37860;BME280;23698;52.014;5.190;2022-08-04T03:58:42;101139.06;;;19.76;100.00
37860;BME280;23698;52.014;5.190;2022-08-04T04:02:20;101141.66;;;19.71;100.00
37860;BME280;23698;52.014;5.190;2022-08-04T04:13:41;101133.28;;;19.78;100.00
37860;BME280;23698;52.014;5.190;2022-08-04T04:17:12;101138.44;;;19.74;100.00
37860;BME280;23698;52.014;5.190;2022-08-04T04:20:38;101133.91;;;19.80;100.00
37860;BME280;23698;52.014;5.190;2022-08-04T04:24:14;101145.81;;;19.86;100.00
37860;BME280;23698;52.014;5.190;2022-08-04T04:27:33;101157.41;;;19.88;100.00
37860;BME280;23698;52.014;5.190;2022-08-04T04:30:46;101158.13;;;20.12;100.00
37860;BME280;23698;52.014;5.190;2022-08-04T04:34:14;101160.13;;;20.33;100.00
37860;BME280;23698;52.014;5.190;2022-08-04T04:37:33;101157.97;;;20.35;100.00
37860;BME280;23698;52.014;5.190;2022-08-04T04:40:59;101160.97;;;20.51;100.00
37860;BME280;23698;52.014;5.190;2022-08-04T04:44:31;101157.69;;;20.66;100.00
37860;BME280;23698;52.014;5.190;2022-08-04T04:47:54;101159.97;;;20.74;100.00
37860;BME280;23698;52.014;5.190;2022-08-04T04:51:18;101157.63;;;20.83;100.00
37860;BME280;23698;52.014;5.190;2022-08-04T04:54:31;101152.81;;;20.90;100.00
37860;BME280;23698;52.014;5.190;2022-08-04T04:57:38;101158.44;;;21.00;100.00
37860;BME280;23698;52.014;5.190;2022-08-04T05:01:07;101149.88;;;21.19;100.00
37860;BME280;23698;52.014;5.190;2022-08-04T05:16:02;101157.69;;;21.93;100.00
37860;BME280;23698;52.014;5.190;2022-08-04T05:19:19;101157.75;;;21.98;100.00
37860;BME280;23698;52.014;5.190;2022-08-04T05:22:31;101155.09;;;22.14;100.00
37860;BME280;23698;52.014;5.190;2022-08-04T05:25:42;101150.50;;;22.19;100.00
37860;BME280;23698;52.014;5.190;2022-08-04T05:29:05;101148.56;;;22.47;100.00
37860;BME280;23698;52.014;5.190;2022-08-04T05:32:13;101163.06;;;22.65;100.00
37860;BME280;23698;52.014;5.190;2022-08-04T05:35:26;101153.91;;;22.64;100.00
37860;BME280;23698;52.014;5.190;2022-08-04T05:38:54;101144.59;;;22.75;100.00
37860;BME280;23698;52.014;5.190;2022-08-04T05:42:05;101147.41;;;22.80;100.00
37860;BME280;23698;52.014;5.190;2022-08-04T05:45:11;101150.78;;;22.93;100.00
37860;BME280;23698;52.014;5.190;2022-08-04T05:48:17;101152.03;;;23.12;100.00
37860;BME280;23698;52.014;5.190;2022-08-04T05:51:23;101160.56;;;23.06;100.00
37860;BME280;23698;52.014;5.190;2022-08-04T05:54:31;101152.13;;;23.33;100.00
37860;BME280;23698;52.014;5.190;2022-08-04T05:57:39;101156.88;;;23.48;100.00
37860;BME280;23698;52.014;5.190;2022-08-04T06:00:46;101144.97;;;23.42;100.00
37860;BME280;23698;52.014;5.190;2022-08-04T06:03:56;101145.56;;;23.49;100.00
37860;BME280;23698;52.014;5.190;2022-08-04T06:07:02;101142.28;;;23.58;100.00
37860;BME280;23698;52.014;5.190;2022-08-04T06:10:09;101139.81;;;23.71;100.00
37860;BME280;23698;52.014;5.190;2022-08-04T06:13:18;101139.53;;;23.78;100.00
37860;BME280;23698;52.014;5.190;2022-08-04T06:16:46;101142.31;;;23.68;100.00
37860;BME280;23698;52.014;5.190;2022-08-04T06:19:54;101145.34;;;23.71;100.00
37860;BME280;23698;52.014;5.190;2022-08-04T06:23:22;101144.47;;;23.66;100.00
37860;BME280;23698;52.014;5.190;2022-08-04T06:26:31;101150.88;;;23.71;100.00
37860;BME280;23698;52.014;5.190;2022-08-04T06:29:41;101144.19;;;23.57;100.00
37860;BME280;23698;52.014;5.190;2022-08-04T06:32:55;101138.47;;;23.84;100.00
37860;BME280;23698;52.014;5.190;2022-08-04T06:36:09;101152.88;;;23.86;100.00
37860;BME280;23698;52.014;5.190;2022-08-04T06:39:15;101155.84;;;23.74;100.00
37860;BME280;23698;52.014;5.190;2022-08-04T06:42:24;101158.09;;;23.78;100.00
37860;BME280;23698;52.014;5.190;2022-08-04T06:45:36;101166.91;;;23.64;100.00
37860;BME280;23698;52.014;5.190;2022-08-04T06:48:41;101163.16;;;23.96;100.00
37860;BME280;23698;52.014;5.190;2022-08-04T06:51:48;101167.00;;;23.95;100.00
37860;BME280;23698;52.014;5.190;2022-08-04T06:54:54;101173.38;;;24.01;100.00
37860;BME280;23698;52.014;5.190;2022-08-04T06:58:01;101178.09;;;24.00;100.00
37860;BME280;23698;52.014;5.190;2022-08-04T07:01:09;101174.25;;;24.37;100.00
37860;BME280;23698;52.014;5.190;2022-08-04T07:04:15;101161.81;;;24.24;100.00
37860;BME280;23698;52.014;5.190;2022-08-04T07:07:23;101173.97;;;24.34;100.00
37860;BME280;23698;52.014;5.190;2022-08-04T07:10:40;101168.72;;;24.17;100.00
37860;BME280;23698;52.014;5.190;2022-08-04T07:13:45;101171.78;;;24.25;100.00
37860;BME280;23698;52.014;5.190;2022-08-04T07:16:53;101181.72;;;24.16;100.00
37860;BME280;23698;52.014;5.190;2022-08-04T07:20:00;101181.19;;;24.19;100.00
37860;BME280;23698;52.014;5.190;2022-08-04T07:23:06;101175.13;;;24.38;100.00
37860;BME280;23698;52.014;5.190;2022-08-04T07:26:11;101182.56;;;24.37;100.00
37860;BME280;23698;52.014;5.190;2022-08-04T07:29:19;101181.75;;;24.31;100.00
37860;BME280;23698;52.014;5.190;2022-08-04T07:32:26;101178.97;;;24.21;100.00
37860;BME280;23698;52.014;5.190;2022-08-04T07:35:31;101184.50;;;24.31;100.00
37860;BME280;23698;52.014;5.190;2022-08-04T07:38:57;101186.75;;;24.40;100.00
37860;BME280;23698;52.014;5.190;2022-08-04T07:42:03;101183.69;;;24.26;100.00
37860;BME280;23698;52.014;5.190;2022-08-04T07:45:09;101189.25;;;24.41;100.00
37860;BME280;23698;52.014;5.190;2022-08-04T07:48:16;101191.16;;;24.30;100.00
37860;BME280;23698;52.014;5.190;2022-08-04T07:51:23;101200.31;;;24.87;100.00
37860;BME280;23698;52.014;5.190;2022-08-04T07:54:28;101193.63;;;25.04;100.00
37860;BME280;23698;52.014;5.190;2022-08-04T07:57:34;101201.66;;;25.16;100.00
37860;BME280;23698;52.014;5.190;2022-08-04T08:00:44;101198.53;;;25.48;100.00
37860;BME280;23698;52.014;5.190;2022-08-04T08:03:53;101201.38;;;25.88;100.00
37860;BME280;23698;52.014;5.190;2022-08-04T08:06:59;101203.22;;;25.53;100.00
37860;BME280;23698;52.014;5.190;2022-08-04T08:10:11;101212.25;;;26.34;100.00
37860;BME280;23698;52.014;5.190;2022-08-04T08:13:17;101213.44;;;26.62;100.00
37860;BME280;23698;52.014;5.190;2022-08-04T08:16:23;101206.31;;;26.46;100.00
37860;BME280;23698;52.014;5.190;2022-08-04T08:19:31;101205.69;;;26.54;100.00
37860;BME280;23698;52.014;5.190;2022-08-04T08:22:37;101197.78;;;26.71;100.00
37860;BME280;23698;52.014;5.190;2022-08-04T08:25:43;101198.44;;;27.17;100.00
37860;BME280;23698;52.014;5.190;2022-08-04T08:28:49;101203.19;;;27.64;100.00
37860;BME280;23698;52.014;5.190;2022-08-04T08:31:54;101197.38;;;28.04;100.00
37860;BME280;23698;52.014;5.190;2022-08-04T08:35:09;101211.03;;;27.81;100.00
37860;BME280;23698;52.014;5.190;2022-08-04T08:38:17;101201.25;;;27.84;100.00
37860;BME280;23698;52.014;5.190;2022-08-04T08:42:13;101205.03;;;28.50;100.00
37860;BME280;23698;52.014;5.190;2022-08-04T08:45:45;101199.56;;;28.07;100.00
37860;BME280;23698;52.014;5.190;2022-08-04T08:49:20;101207.78;;;28.69;100.00
37860;BME280;23698;52.014;5.190;2022-08-04T08:53:12;101207.91;;;28.45;100.00
37860;BME280;23698;52.014;5.190;2022-08-04T08:56:30;101208.13;;;28.30;100.00
37860;BME280;23698;52.014;5.190;2022-08-04T08:59:49;101213.06;;;28.52;100.00
37860;BME280;23698;52.014;5.190;2022-08-04T09:03:37;101223.22;;;28.80;100.00
37860;BME280;23698;52.014;5.190;2022-08-04T09:06:52;101229.41;;;29.38;100.00
37860;BME280;23698;52.014;5.190;2022-08-04T09:10:06;101228.75;;;29.13;100.00
37860;BME280;23698;52.014;5.190;2022-08-04T09:13:18;101223.94;;;29.19;100.00
37860;BME280;23698;52.014;5.190;2022-08-04T09:16:34;101221.56;;;28.93;100.00
37860;BME280;23698;52.014;5.190;2022-08-04T09:19:44;101219.94;;;28.59;100.00
37860;BME280;23698;52.014;5.190;2022-08-04T09:23:03;101226.56;;;28.96;100.00
37860;BME280;23698;52.014;5.190;2022-08-04T09:26:18;101217.00;;;28.70;100.00
37860;BME280;23698;52.014;5.190;2022-08-04T09:29:32;101227.59;;;29.00;100.00
37860;BME280;23698;52.014;5.190;2022-08-04T09:32:44;101225.91;;;29.46;100.00
37860;BME280;23698;52.014;5.190;2022-08-04T09:35:56;101237.81;;;29.52;100.00
37860;BME280;23698;52.014;5.190;2022-08-04T09:39:06;101239.44;;;29.94;100.00
37860;BME280;23698;52.014;5.190;2022-08-04T09:42:19;101249.38;;;29.73;100.00
37860;BME280;23698;52.014;5.190;2022-08-04T09:45:32;101256.84;;;29.64;100.00
37860;BME280;23698;52.014;5.190;2022-08-04T09:48:52;101256.09;;;29.86;100.00
37860;BME280;23698;52.014;5.190;2022-08-04T09:52:05;101256.53;;;29.79;100.00
37860;BME280;23698;52.014;5.190;2022-08-04T09:55:17;101270.47;;;30.07;100.00
37860;BME280;23698;52.014;5.190;2022-08-04T09:58:39;101278.38;;;29.77;100.00
37860;BME280;23698;52.014;5.190;2022-08-04T10:01:50;101268.97;;;29.12;100.00
37860;BME280;23698;52.014;5.190;2022-08-04T10:05:08;101276.09;;;28.72;100.00
37860;BME280;23698;52.014;5.190;2022-08-04T10:08:23;101271.81;;;28.41;100.00
37860;BME280;23698;52.014;5.190;2022-08-04T10:11:43;101283.25;;;28.40;100.00
37860;BME280;23698;52.014;5.190;2022-08-04T10:15:08;101288.00;;;28.20;100.00
37860;BME280;23698;52.014;5.190;2022-08-04T10:18:27;101292.03;;;28.09;100.00
37860;BME280;23698;52.014;5.190;2022-08-04T10:21:46;101290.41;;;27.84;100.00
37860;BME280;23698;52.014;5.190;2022-08-04T10:25:33;101315.53;;;27.55;100.00
37860;BME280;23698;52.014;5.190;2022-08-04T10:29:05;101321.84;;;27.02;100.00
37860;BME280;23698;52.014;5.190;2022-08-04T10:32:18;101320.31;;;26.85;100.00
37860;BME280;23698;52.014;5.190;2022-08-04T10:35:27;101290.47;;;26.62;100.00
37860;BME280;23698;52.014;5.190;2022-08-04T10:38:36;101315.19;;;26.58;100.00
37860;BME280;23698;52.014;5.190;2022-08-04T10:41:51;101314.72;;;26.46;100.00
37860;BME280;23698;52.014;5.190;2022-08-04T10:45:09;101336.81;;;26.22;100.00
37860;BME280;23698;52.014;5.190;2022-08-04T10:48:23;101334.97;;;25.96;100.00
37860;BME280;23698;52.014;5.190;2022-08-04T10:51:42;101322.13;;;26.16;100.00
37860;BME280;23698;52.014;5.190;2022-08-04T10:55:07;101337.41;;;26.08;100.00
37860;BME280;23698;52.014;5.190;2022-08-04T10:58:18;101340.31;;;26.43;100.00
37860;BME280;23698;52.014;5.190;2022-08-04T11:01:29;101342.34;;;26.77;100.00
37860;BME280;23698;52.014;5.190;2022-08-04T11:05:03;101345.03;;;26.87;100.00
37860;BME280;23698;52.014;5.190;2022-08-04T11:08:13;101325.94;;;27.09;100.00
37860;BME280;23698;52.014;5.190;2022-08-04T11:11:30;101327.59;;;27.45;100.00
37860;BME280;23698;52.014;5.190;2022-08-04T11:14:58;101316.34;;;27.55;100.00
37860;BME280;23698;52.014;5.190;2022-08-04T11:18:11;101298.13;;;27.87;100.00
37860;BME280;23698;52.014;5.190;2022-08-04T11:21:25;101294.22;;;28.55;100.00
37860;BME280;23698;52.014;5.190;2022-08-04T11:24:36;101290.69;;;28.44;100.00
37860;BME280;23698;52.014;5.190;2022-08-04T11:27:50;101285.84;;;28.88;100.00
37860;BME280;23698;52.014;5.190;2022-08-04T11:31:02;101287.75;;;28.17;100.00
37860;BME280;23698;52.014;5.190;2022-08-04T11:34:17;101296.91;;;28.41;100.00
37860;BME280;23698;52.014;5.190;2022-08-04T11:37:27;101301.94;;;29.43;100.00
37860;BME280;23698;52.014;5.190;2022-08-04T11:40:41;101305.66;;;29.52;100.00
37860;BME280;23698;52.014;5.190;2022-08-04T11:44:08;101293.22;;;30.14;100.00
37860;BME280;23698;52.014;5.190;2022-08-04T11:47:26;101300.16;;;29.47;100.00
37860;BME280;23698;52.014;5.190;2022-08-04T11:50:37;101292.84;;;29.51;100.00
37860;BME280;23698;52.014;5.190;2022-08-04T11:53:47;101294.56;;;28.68;100.00
37860;BME280;23698;52.014;5.190;2022-08-04T11:56:53;101297.72;;;28.80;100.00
37860;BME280;23698;52.014;5.190;2022-08-04T12:00:03;101282.75;;;29.23;100.00
37860;BME280;23698;52.014;5.190;2022-08-04T12:03:17;101284.97;;;29.53;100.00
37860;BME280;23698;52.014;5.190;2022-08-04T12:06:28;101295.94;;;29.50;100.00
37860;BME280;23698;52.014;5.190;2022-08-04T12:09:47;101301.03;;;29.89;100.00
37860;BME280;23698;52.014;5.190;2022-08-04T12:13:02;101300.16;;;29.61;100.00
37860;BME280;23698;52.014;5.190;2022-08-04T12:16:14;101313.13;;;28.91;100.00
37860;BME280;23698;52.014;5.190;2022-08-04T12:19:25;101322.03;;;30.15;100.00
37860;BME280;23698;52.014;5.190;2022-08-04T12:22:51;101324.88;;;29.40;100.00
37860;BME280;23698;52.014;5.190;2022-08-04T12:26:04;101318.69;;;29.10;100.00
37860;BME280;23698;52.014;5.190;2022-08-04T12:29:11;101317.25;;;29.73;100.00
37860;BME280;23698;52.014;5.190;2022-08-04T12:32:22;101316.91;;;30.30;100.00
37860;BME280;23698;52.014;5.190;2022-08-04T12:35:33;101319.56;;;29.99;100.00
37860;BME280;23698;52.014;5.190;2022-08-04T12:38:45;101324.78;;;29.59;100.00
37860;BME280;23698;52.014;5.190;2022-08-04T12:42:00;101310.09;;;29.53;100.00
37860;BME280;23698;52.014;5.190;2022-08-04T12:45:07;101316.53;;;30.09;100.00
37860;BME280;23698;52.014;5.190;2022-08-04T12:48:15;101305.81;;;30.76;100.00
37860;BME280;23698;52.014;5.190;2022-08-04T12:51:25;101312.38;;;30.35;100.00
37860;BME280;23698;52.014;5.190;2022-08-04T12:54:53;101312.16;;;30.67;100.00
37860;BME280;23698;52.014;5.190;2022-08-04T12:58:01;101318.94;;;30.02;100.00
37860;BME280;23698;52.014;5.190;2022-08-04T13:01:10;101309.69;;;30.88;100.00
37860;BME280;23698;52.014;5.190;2022-08-04T13:04:36;101314.16;;;31.12;100.00
37860;BME280;23698;52.014;5.190;2022-08-04T13:07:47;101319.16;;;31.24;100.00
37860;BME280;23698;52.014;5.190;2022-08-04T13:10:56;101331.41;;;31.05;100.00
37860;BME280;23698;52.014;5.190;2022-08-04T13:14:03;101327.22;;;31.25;100.00
37860;BME280;23698;52.014;5.190;2022-08-04T13:17:41;101330.28;;;30.20;100.00
37860;BME280;23698;52.014;5.190;2022-08-04T13:20:51;101330.56;;;31.05;100.00
37860;BME280;23698;52.014;5.190;2022-08-04T13:24:08;101325.81;;;30.46;100.00
37860;BME280;23698;52.014;5.190;2022-08-04T13:27:36;101341.06;;;30.99;100.00
37860;BME280;23698;52.014;5.190;2022-08-04T13:30:53;101337.56;;;30.94;100.00
37860;BME280;23698;52.014;5.190;2022-08-04T13:34:04;101340.53;;;31.20;100.00
37860;BME280;23698;52.014;5.190;2022-08-04T13:37:24;101333.13;;;31.87;100.00
37860;BME280;23698;52.014;5.190;2022-08-04T13:40:31;101334.78;;;32.54;100.00
37860;BME280;23698;52.014;5.190;2022-08-04T13:43:40;101323.53;;;32.28;100.00
37860;BME280;23698;52.014;5.190;2022-08-04T13:47:11;101328.41;;;32.05;100.00
37860;BME280;23698;52.014;5.190;2022-08-04T13:50:20;101335.72;;;31.74;100.00
37860;BME280;23698;52.014;5.190;2022-08-04T13:53:26;101335.84;;;31.06;100.00
37860;BME280;23698;52.014;5.190;2022-08-04T13:56:38;101332.84;;;31.25;100.00
37860;BME280;23698;52.014;5.190;2022-08-04T13:59:50;101325.91;;;31.86;100.00
37860;BME280;23698;52.014;5.190;2022-08-04T14:03:01;101326.16;;;31.67;100.00
37860;BME280;23698;52.014;5.190;2022-08-04T14:06:29;101326.97;;;31.36;100.00
37860;BME280;23698;52.014;5.190;2022-08-04T14:09:37;101317.72;;;31.58;100.00
37860;BME280;23698;52.014;5.190;2022-08-04T14:13:04;101329.44;;;31.37;100.00
37860;BME280;23698;52.014;5.190;2022-08-04T14:16:13;101321.94;;;31.24;100.00
37860;BME280;23698;52.014;5.190;2022-08-04T14:19:20;101329.03;;;30.99;100.00
37860;BME280;23698;52.014;5.190;2022-08-04T14:22:33;101323.34;;;30.90;100.00
37860;BME280;23698;52.014;5.190;2022-08-04T14:25:38;101328.81;;;31.40;100.00
37860;BME280;23698;52.014;5.190;2022-08-04T14:28:44;101323.22;;;31.72;100.00
37860;BME280;23698;52.014;5.190;2022-08-04T14:32:10;101320.75;;;31.16;100.00
37860;BME280;23698;52.014;5.190;2022-08-04T14:35:20;101312.00;;;31.40;100.00
37860;BME280;23698;52.014;5.190;2022-08-04T14:38:42;101311.91;;;31.94;100.00
37860;BME280;23698;52.014;5.190;2022-08-04T14:41:49;101308.66;;;32.27;99.14
37860;BME280;23698;52.014;5.190;2022-08-04T14:44:56;101307.97;;;31.55;100.00
37860;BME280;23698;52.014;5.190;2022-08-04T14:48:05;101323.03;;;31.37;100.00
37860;BME280;23698;52.014;5.190;2022-08-04T14:51:13;101320.00;;;31.56;100.00
37860;BME280;23698;52.014;5.190;2022-08-04T14:54:25;101323.81;;;31.60;100.00
37860;BME280;23698;52.014;5.190;2022-08-04T14:57:34;101328.34;;;30.93;100.00
37860;BME280;23698;52.014;5.190;2022-08-04T15:01:02;101334.88;;;30.88;100.00
37860;BME280;23698;52.014;5.190;2022-08-04T15:04:15;101336.31;;;30.63;100.00
37860;BME280;23698;52.014;5.190;2022-08-04T15:07:22;101332.81;;;30.80;100.00
37860;BME280;23698;52.014;5.190;2022-08-04T15:10:27;101330.09;;;30.89;100.00
37860;BME280;23698;52.014;5.190;2022-08-04T15:13:32;101336.06;;;30.51;100.00
37860;BME280;23698;52.014;5.190;2022-08-04T15:16:38;101329.66;;;30.37;100.00
37860;BME280;23698;52.014;5.190;2022-08-04T15:19:57;101333.50;;;30.13;100.00
37860;BME280;23698;52.014;5.190;2022-08-04T15:23:05;101338.66;;;30.34;100.00
37860;BME280;23698;52.014;5.190;2022-08-04T15:26:16;101338.56;;;29.69;100.00
37860;BME280;23698;52.014;5.190;2022-08-04T15:29:27;101340.53;;;30.10;100.00
37860;BME280;23698;52.014;5.190;2022-08-04T15:32:56;101338.78;;;30.65;100.00
37860;BME280;23698;52.014;5.190;2022-08-04T15:36:11;101334.88;;;31.11;100.00
37860;BME280;23698;52.014;5.190;2022-08-04T15:39:27;101337.41;;;31.75;100.00
37860;BME280;23698;52.014;5.190;2022-08-04T15:42:40;101340.69;;;31.15;100.00
37860;BME280;23698;52.014;5.190;2022-08-04T15:45:49;101350.44;;;30.95;100.00
37860;BME280;23698;52.014;5.190;2022-08-04T15:49:19;101342.84;;;32.29;98.70
37860;BME280;23698;52.014;5.190;2022-08-04T15:52:25;101345.94;;;31.39;100.00
37860;BME280;23698;52.014;5.190;2022-08-04T15:55:38;101344.13;;;31.74;100.00
37860;BME280;23698;52.014;5.190;2022-08-04T15:58:49;101340.22;;;32.42;94.63
37860;BME280;23698;52.014;5.190;2022-08-04T16:02:27;101346.63;;;32.25;95.26
37860;BME280;23698;52.014;5.190;2022-08-04T16:05:34;101345.47;;;32.34;95.07
37860;BME280;23698;52.014;5.190;2022-08-04T16:08:57;101345.84;;;32.42;90.13
37860;BME280;23698;52.014;5.190;2022-08-04T16:12:04;101353.13;;;32.03;89.53
37860;BME280;23698;52.014;5.190;2022-08-04T16:15:37;101356.53;;;32.48;91.66
37860;BME280;23698;52.014;5.190;2022-08-04T16:18:43;101352.56;;;31.83;90.20
37860;BME280;23698;52.014;5.190;2022-08-04T16:21:50;101352.75;;;32.53;90.20
37860;BME280;23698;52.014;5.190;2022-08-04T16:24:55;101358.66;;;31.22;91.26
37860;BME280;23698;52.014;5.190;2022-08-04T16:28:02;101360.47;;;29.48;100.00
37860;BME280;23698;52.014;5.190;2022-08-04T16:31:09;101363.19;;;28.44;100.00
37860;BME280;23698;52.014;5.190;2022-08-04T16:34:17;101363.63;;;27.60;100.00
37860;BME280;23698;52.014;5.190;2022-08-04T16:37:43;101364.22;;;27.28;100.00
37860;BME280;23698;52.014;5.190;2022-08-04T16:40:53;101364.09;;;27.09;100.00
37860;BME280;23698;52.014;5.190;2022-08-04T16:48:00;101368.31;;;26.62;100.00
37860;BME280;23698;52.014;5.190;2022-08-04T16:51:08;101368.22;;;26.77;100.00
37860;BME280;23698;52.014;5.190;2022-08-04T16:54:13;101354.00;;;27.77;100.00
37860;BME280;23698;52.014;5.190;2022-08-04T16:57:19;101351.19;;;28.68;100.00
37860;BME280;23698;52.014;5.190;2022-08-04T17:00:29;101351.66;;;28.51;100.00
37860;BME280;23698;52.014;5.190;2022-08-04T17:03:38;101358.31;;;27.88;100.00
37860;BME280;23698;52.014;5.190;2022-08-04T17:06:44;101356.06;;;27.37;100.00
37860;BME280;23698;52.014;5.190;2022-08-04T17:09:50;101350.59;;;26.87;100.00
37860;BME280;23698;52.014;5.190;2022-08-04T17:12:56;101353.97;;;26.34;100.00